createdAt,value
2019-02-21T00:03:05.995Z,8.10
2019-02-21T00:07:24.322Z,8.00
2019-02-21T00:11:42.936Z,8.00
2019-02-21T00:16:01.070Z,8.00
2019-02-21T00:20:19.233Z,8.00
2019-02-21T00:24:39.980Z,7.90
2019-02-21T00:28:57.573Z,7.90
2019-02-21T00:33:15.603Z,7.90
2019-02-21T00:37:34.206Z,7.80
2019-02-21T00:41:52.589Z,7.80
2019-02-21T00:46:10.764Z,7.70
2019-02-21T00:50:29.045Z,7.70
2019-02-21T00:54:47.429Z,7.70
2019-02-21T00:59:06.156Z,7.60
2019-02-21T01:03:24.715Z,7.60
2019-02-21T01:07:43.546Z,7.60
2019-02-21T01:12:02.107Z,7.60
2019-02-21T01:16:20.747Z,7.50
2019-02-21T01:20:39.347Z,7.50
2019-02-21T01:24:57.941Z,7.50
2019-02-21T01:29:16.413Z,7.40
2019-02-21T01:33:34.951Z,7.40
2019-02-21T01:37:53.171Z,7.40
2019-02-21T01:42:11.321Z,7.40
2019-02-21T01:46:30.226Z,7.30
2019-02-21T01:50:48.436Z,7.30
2019-02-21T01:55:09.990Z,7.30
2019-02-21T01:59:28.129Z,7.30
2019-02-21T02:03:47.239Z,7.20
2019-02-21T02:08:05.905Z,7.20
2019-02-21T02:12:24.227Z,7.20
2019-02-21T02:16:43.331Z,7.20
2019-02-21T02:21:01.688Z,7.10
2019-02-21T02:25:20.944Z,7.10
2019-02-21T02:29:39.891Z,7.10
2019-02-21T02:33:58.070Z,7.10
2019-02-21T02:38:16.719Z,7.10
2019-02-21T02:42:35.372Z,7.00
2019-02-21T02:46:54.136Z,7.00
2019-02-21T02:51:13.477Z,7.00
2019-02-21T02:55:32.059Z,7.00
2019-02-21T02:59:50.645Z,6.90
2019-02-21T03:04:09.249Z,6.90
2019-02-21T03:08:28.462Z,6.90
2019-02-21T03:12:46.583Z,6.80
2019-02-21T03:17:04.746Z,6.80
2019-02-21T03:21:23.022Z,6.80
2019-02-21T03:25:41.035Z,6.80
2019-02-21T03:29:59.993Z,6.80
2019-02-21T03:34:20.403Z,6.90
2019-02-21T03:38:39.545Z,6.90
2019-02-21T03:42:57.970Z,7.00
2019-02-21T03:47:16.719Z,7.00
2019-02-21T03:51:34.997Z,6.90
2019-02-21T03:55:53.058Z,6.90
2019-02-21T04:00:11.442Z,7.00
2019-02-21T04:04:29.885Z,7.00
2019-02-21T04:08:48.390Z,7.00
2019-02-21T04:13:07.482Z,7.00
2019-02-21T04:17:25.798Z,7.00
2019-02-21T04:21:44.616Z,6.90
2019-02-21T04:26:02.736Z,6.80
2019-02-21T04:30:20.988Z,6.80
2019-02-21T04:34:39.251Z,6.70
2019-02-21T04:38:57.634Z,6.70
2019-02-21T04:43:16.239Z,6.70
2019-02-21T04:47:34.427Z,6.60
2019-02-21T04:51:53.007Z,6.60
2019-02-21T04:56:11.122Z,6.60
2019-02-21T05:00:29.416Z,6.60
2019-02-21T05:04:47.573Z,6.60
2019-02-21T05:09:07.498Z,6.70
2019-02-21T05:13:26.264Z,6.70
2019-02-21T05:17:44.403Z,6.80
2019-02-21T05:22:03.184Z,6.80
2019-02-21T05:26:43.598Z,6.80
2019-02-21T05:31:13.264Z,6.90
2019-02-21T05:35:42.832Z,6.90
2019-02-21T05:40:19.416Z,7.00
2019-02-21T05:44:48.491Z,7.00
2019-02-21T05:49:18.590Z,7.00
2019-02-21T05:53:46.061Z,7.10
2019-02-21T05:58:09.327Z,7.00
2019-02-21T06:02:59.332Z,7.00
2019-02-21T06:07:28.533Z,7.00
2019-02-21T06:12:11.862Z,7.00
2019-02-21T06:16:52.086Z,6.90
2019-02-21T06:21:47.895Z,6.90
2019-02-21T06:26:16.178Z,6.80
2019-02-21T06:30:56.014Z,6.70
2019-02-21T06:35:14.227Z,6.60
2019-02-21T06:39:32.667Z,6.50
2019-02-21T06:43:52.744Z,6.50
2019-02-21T06:48:10.953Z,6.50
2019-02-21T06:52:29.057Z,6.40
2019-02-21T06:56:47.380Z,6.40
2019-02-21T07:01:05.937Z,6.40
2019-02-21T07:05:25.543Z,6.40
2019-02-21T07:09:44.075Z,6.50
2019-02-21T07:14:03.485Z,6.60
2019-02-21T07:18:22.159Z,6.80
2019-02-21T07:22:41.348Z,6.80
2019-02-21T07:27:00.138Z,6.90
2019-02-21T07:31:28.034Z,7.00
2019-02-21T07:35:39.068Z,7.10
2019-02-21T07:39:58.840Z,7.10
2019-02-21T07:44:17.539Z,7.20
2019-02-21T07:48:36.605Z,7.40
2019-02-21T07:53:02.419Z,7.50
2019-02-21T07:57:16.290Z,7.70
2019-02-21T08:01:35.188Z,7.90
2019-02-21T08:05:54.069Z,8.10
2019-02-21T08:10:12.568Z,8.30
2019-02-21T08:14:30.785Z,8.60
2019-02-21T08:18:49.402Z,8.80
2019-02-21T08:23:10.895Z,9.00
2019-02-21T08:27:29.304Z,9.20
2019-02-21T08:31:49.287Z,9.30
2019-02-21T08:36:08.487Z,9.50
2019-02-21T08:40:26.560Z,9.60
2019-02-21T08:44:45.360Z,9.90
2019-02-21T08:49:03.774Z,10.10
2019-02-21T08:53:22.364Z,10.30
2019-02-21T08:57:41.422Z,10.60
2019-02-21T09:02:00.147Z,10.80
2019-02-21T09:06:20.005Z,11.00
2019-02-21T09:10:38.691Z,11.40
2019-02-21T09:14:57.391Z,12.10
2019-02-21T09:19:15.500Z,12.60
2019-02-21T09:23:34.936Z,12.80
2019-02-21T09:27:54.768Z,12.90
2019-02-21T09:32:12.871Z,12.90
2019-02-21T09:36:31.571Z,12.90
2019-02-21T09:40:51.520Z,12.90
2019-02-21T09:45:14.997Z,12.90
2019-02-21T09:49:33.141Z,13.00
2019-02-21T09:53:51.948Z,13.20
2019-02-21T09:58:09.947Z,13.50
2019-02-21T10:02:28.163Z,14.20
2019-02-21T10:06:46.369Z,15.20
2019-02-21T10:11:05.129Z,16.30
2019-02-21T10:15:23.395Z,17.40
2019-02-21T10:19:41.503Z,18.50
2019-02-21T10:24:00.054Z,19.50
2019-02-21T10:28:18.603Z,20.40
2019-02-21T10:32:36.869Z,20.90
2019-02-21T10:36:55.439Z,21.00
2019-02-21T10:41:13.591Z,20.80
2019-02-21T10:45:31.891Z,20.40
2019-02-21T10:49:50.526Z,20.20
2019-02-21T10:54:08.636Z,20.20
2019-02-21T10:58:26.998Z,20.30
2019-02-21T11:02:46.968Z,20.30
2019-02-21T11:07:05.266Z,20.30
2019-02-21T11:11:23.466Z,20.40
2019-02-21T11:15:42.228Z,20.60
2019-02-21T11:20:00.671Z,20.70
2019-02-21T11:24:22.045Z,20.60
2019-02-21T11:28:42.466Z,20.40
2019-02-21T11:33:00.644Z,20.30
2019-02-21T11:37:19.383Z,20.60
2019-02-21T11:41:37.957Z,20.90
2019-02-21T11:45:57.645Z,21.40
2019-02-21T11:50:18.491Z,21.50
2019-02-21T11:54:38.363Z,21.40
2019-02-21T11:58:56.864Z,21.20
2019-02-21T12:03:15.453Z,21.10
2019-02-21T12:07:33.605Z,21.00
2019-02-21T12:11:52.725Z,20.90
2019-02-21T12:16:11.103Z,21.00
2019-02-21T12:20:29.451Z,21.10
2019-02-21T12:24:49.006Z,21.20
2019-02-21T12:29:07.153Z,21.10
2019-02-21T12:33:25.898Z,21.00
2019-02-21T12:37:44.201Z,20.80
2019-02-21T12:42:02.313Z,20.60
2019-02-21T12:46:20.599Z,20.40
2019-02-21T12:50:44.352Z,20.10
2019-02-21T12:54:59.006Z,19.90
2019-02-21T12:59:17.548Z,19.60
2019-02-21T13:03:35.773Z,19.30
2019-02-21T13:07:54.193Z,19.10
2019-02-21T13:12:12.195Z,19.00
2019-02-21T13:16:30.436Z,18.80
2019-02-21T13:20:48.606Z,18.70
2019-02-21T13:25:07.448Z,18.60
2019-02-21T13:29:25.655Z,18.50
2019-02-21T13:33:44.118Z,18.40
2019-02-21T13:38:02.759Z,18.30
2019-02-21T13:42:21.070Z,18.20
2019-02-21T13:46:41.412Z,18.10
2019-02-21T13:51:00.103Z,18.10
2019-02-21T13:55:18.254Z,18.10
2019-02-21T13:59:36.468Z,18.10
2019-02-21T14:03:56.648Z,18.10
2019-02-21T14:08:15.366Z,18.10
2019-02-21T14:12:34.597Z,18.00
2019-02-21T14:16:53.006Z,17.90
2019-02-21T14:21:11.609Z,17.80
2019-02-21T14:25:40.352Z,17.70
2019-02-21T14:29:50.640Z,17.60
2019-02-21T14:34:09.003Z,17.40
2019-02-21T14:38:28.599Z,17.30
2019-02-21T14:42:46.983Z,17.20
2019-02-21T14:47:07.925Z,17.20
2019-02-21T14:51:25.514Z,17.10
2019-02-21T14:55:44.472Z,17.00
2019-02-21T15:00:02.839Z,16.80
2019-02-21T15:04:21.127Z,16.80
2019-02-21T15:08:39.629Z,16.70
2019-02-21T15:12:58.057Z,16.70
2019-02-21T15:17:18.612Z,16.60
2019-02-21T15:21:37.168Z,16.50
2019-02-21T15:25:55.543Z,16.50
2019-02-21T15:30:17.567Z,16.40
2019-02-21T15:34:35.693Z,16.30
2019-02-21T15:38:56.934Z,16.20
2019-02-21T15:43:15.317Z,16.20
2019-02-21T15:47:33.968Z,16.10
2019-02-21T15:51:53.145Z,16.00
2019-02-21T15:56:11.368Z,15.90
2019-02-21T16:00:29.549Z,15.80
2019-02-21T16:04:48.114Z,15.80
2019-02-21T16:09:16.238Z,15.70
2019-02-21T16:13:29.196Z,15.70
2019-02-21T16:17:47.796Z,15.60
2019-02-21T16:22:07.143Z,15.50
2019-02-21T16:26:25.261Z,15.40
2019-02-21T16:30:43.633Z,15.30
2019-02-21T16:35:02.319Z,15.20
2019-02-21T16:39:23.560Z,15.10
2019-02-21T16:43:40.947Z,14.90
2019-02-21T16:47:59.762Z,14.70
2019-02-21T16:52:18.668Z,14.50
2019-02-21T16:56:36.806Z,14.30
2019-02-21T17:00:56.857Z,14.10
2019-02-21T17:05:15.630Z,14.00
2019-02-21T17:09:33.906Z,13.80
2019-02-21T17:13:52.484Z,13.70
2019-02-21T17:18:10.647Z,13.60
2019-02-21T17:22:29.213Z,13.50
2019-02-21T17:26:47.896Z,13.30
2019-02-21T17:31:06.457Z,13.20
2019-02-21T17:35:24.790Z,13.10
2019-02-21T17:39:42.909Z,13.00
2019-02-21T17:44:01.691Z,12.90
2019-02-21T17:48:20.722Z,12.90
2019-02-21T17:52:39.329Z,12.90
2019-02-21T17:56:57.843Z,12.80
2019-02-21T18:01:16.158Z,12.80
2019-02-21T18:05:41.334Z,12.80
2019-02-21T18:10:00.223Z,12.80
2019-02-21T18:14:18.509Z,12.70
2019-02-21T18:18:36.613Z,12.80
2019-02-21T18:22:54.730Z,12.80
2019-02-21T18:27:13.012Z,12.90
2019-02-21T18:31:32.419Z,12.90
2019-02-21T18:35:50.684Z,12.90
2019-02-21T18:40:17.281Z,12.90
2019-02-21T18:44:31.718Z,12.90
2019-02-21T18:48:50.377Z,12.90
2019-02-21T18:53:08.689Z,12.80
2019-02-21T18:57:26.926Z,12.80
2019-02-21T19:01:47.784Z,12.80
2019-02-21T19:06:06.763Z,12.80
2019-02-21T19:10:25.630Z,12.70
2019-02-21T19:14:44.031Z,12.70
2019-02-21T19:19:02.712Z,12.70
2019-02-21T19:23:21.211Z,12.70
2019-02-21T19:27:40.226Z,12.70
2019-02-21T19:31:58.774Z,12.80
2019-02-21T19:36:16.955Z,12.80
2019-02-21T19:40:35.547Z,12.80
2019-02-21T19:44:54.177Z,12.80
2019-02-21T19:49:12.279Z,12.80
2019-02-21T19:53:31.917Z,12.80
2019-02-21T19:57:50.322Z,12.80
2019-02-21T20:02:08.609Z,12.90
2019-02-21T20:06:26.763Z,12.90
2019-02-21T20:10:45.735Z,12.90
2019-02-21T20:15:04.174Z,12.90
2019-02-21T20:19:22.452Z,13.00
2019-02-21T20:23:41.087Z,13.00
2019-02-21T20:27:59.665Z,13.00
2019-02-21T20:32:17.831Z,13.10
2019-02-21T20:36:36.366Z,13.10
2019-02-21T20:40:54.703Z,13.10
2019-02-21T20:45:13.312Z,13.10
2019-02-21T20:49:32.662Z,13.10
2019-02-21T20:53:51.066Z,13.10
2019-02-21T20:58:11.691Z,13.10
2019-02-21T21:02:30.712Z,13.10
2019-02-21T21:06:49.891Z,13.10
2019-02-21T21:11:08.045Z,13.10
2019-02-21T21:15:26.440Z,13.10
2019-02-21T21:19:45.155Z,13.10
2019-02-21T21:24:03.448Z,13.20
2019-02-21T21:28:22.289Z,13.20
2019-02-21T21:32:40.547Z,13.20
2019-02-21T21:36:58.745Z,13.20
2019-02-21T21:41:17.440Z,13.30
2019-02-21T21:45:35.602Z,13.30
2019-02-21T21:49:54.565Z,13.30
2019-02-21T21:54:12.777Z,13.30
2019-02-21T21:58:31.449Z,13.30
2019-02-21T22:02:49.899Z,13.30
2019-02-21T22:07:08.028Z,13.30
2019-02-21T22:11:26.371Z,13.30
2019-02-21T22:15:44.757Z,13.30
2019-02-21T22:20:03.330Z,13.40
2019-02-21T22:24:22.402Z,13.20
2019-02-21T22:28:40.862Z,13.40
2019-02-21T22:32:59.036Z,13.40
2019-02-21T22:37:17.308Z,13.40
2019-02-21T22:41:35.622Z,13.40
2019-02-21T22:45:53.935Z,13.40
2019-02-21T22:50:15.340Z,13.40
2019-02-21T22:54:34.782Z,13.40
2019-02-21T22:58:53.393Z,13.40
2019-02-21T23:03:11.742Z,13.40
2019-02-21T23:07:48.623Z,13.40
2019-02-21T23:12:07.066Z,13.40
2019-02-21T23:16:25.332Z,13.40
2019-02-21T23:20:43.540Z,13.40
2019-02-21T23:25:02.094Z,13.40
2019-02-21T23:29:20.348Z,13.40
2019-02-21T23:33:44.930Z,13.40
2019-02-21T23:38:03.035Z,13.30
2019-02-21T23:42:22.696Z,13.30
2019-02-21T23:46:40.842Z,13.30
2019-02-21T23:50:59.106Z,13.30
2019-02-21T23:55:17.315Z,13.30
2019-02-21T23:59:35.658Z,13.30
